createdAt,value
2022-12-08T00:01:36.612Z,7.38
2022-12-08T00:04:20.676Z,7.12
2022-12-08T00:07:22.214Z,7.26
2022-12-08T00:10:39.820Z,7.05
2022-12-08T00:13:13.584Z,6.96
2022-12-08T00:16:01.774Z,7.24
2022-12-08T00:18:45.943Z,7.09
2022-12-08T00:21:30.430Z,7.10
2022-12-08T00:24:14.507Z,7.38
2022-12-08T00:26:59.998Z,7.42
2022-12-08T00:29:45.080Z,7.30
2022-12-08T00:32:29.244Z,7.15
2022-12-08T00:35:13.199Z,7.24
2022-12-08T00:38:00.778Z,7.22
2022-12-08T00:40:46.373Z,7.25
2022-12-08T00:43:31.851Z,7.36
2022-12-08T00:46:15.990Z,7.10
2022-12-08T00:49:00.254Z,7.04
2022-12-08T00:51:45.059Z,7.37
2022-12-08T00:54:29.258Z,7.29
2022-12-08T00:57:13.219Z,6.73
2022-12-08T00:59:58.705Z,6.93
2022-12-08T01:02:42.988Z,7.26
2022-12-08T01:05:27.158Z,7.20
2022-12-08T01:08:11.257Z,7.27
2022-12-08T01:10:55.503Z,7.15
2022-12-08T01:13:39.766Z,7.05
2022-12-08T01:16:27.816Z,7.21
2022-12-08T01:19:12.607Z,7.43
2022-12-08T01:21:56.577Z,7.37
2022-12-08T01:24:40.855Z,7.02
2022-12-08T01:27:24.953Z,7.50
2022-12-08T01:30:10.699Z,7.13
2022-12-08T01:32:56.890Z,7.52
2022-12-08T01:35:41.057Z,7.24
2022-12-08T01:38:25.867Z,7.33
2022-12-08T01:41:11.325Z,6.94
2022-12-08T01:44:01.785Z,7.12
2022-12-08T01:46:48.679Z,7.24
2022-12-08T01:49:36.978Z,7.13
2022-12-08T01:52:27.695Z,7.51
2022-12-08T01:55:17.004Z,7.59
2022-12-08T01:58:07.304Z,7.29
2022-12-08T02:00:52.634Z,7.24
2022-12-08T02:03:42.634Z,7.19
2022-12-08T02:06:30.191Z,7.24
2022-12-08T02:09:15.801Z,7.10
2022-12-08T02:12:01.439Z,7.24
2022-12-08T02:15:06.101Z,7.32
2022-12-08T02:18:05.250Z,7.45
2022-12-08T02:20:57.641Z,6.93
2022-12-08T02:23:53.118Z,6.95
2022-12-08T02:27:06.990Z,7.66
2022-12-08T02:30:18.701Z,7.73
2022-12-08T02:33:40.577Z,7.50
2022-12-08T02:36:33.167Z,7.61
2022-12-08T02:39:27.151Z,7.00
2022-12-08T02:42:21.526Z,7.41
2022-12-08T02:45:13.963Z,7.20
2022-12-08T02:48:01.169Z,7.33
2022-12-08T02:50:46.507Z,7.13
2022-12-08T02:53:33.496Z,6.70
2022-12-08T02:56:35.708Z,7.02
2022-12-08T02:59:31.510Z,7.31
2022-12-08T03:02:34.599Z,7.37
2022-12-08T03:05:43.292Z,7.32
2022-12-08T03:08:35.405Z,6.97
2022-12-08T03:11:25.753Z,7.08
2022-12-08T03:14:11.850Z,6.92
2022-12-08T03:16:58.787Z,6.80
2022-12-08T03:19:44.233Z,6.79
2022-12-08T03:22:30.200Z,6.93
2022-12-08T03:25:18.466Z,7.11
2022-12-08T03:28:02.513Z,7.28
2022-12-08T03:30:49.617Z,7.30
2022-12-08T03:33:38.326Z,7.28
2022-12-08T03:36:22.355Z,7.10
2022-12-08T03:39:06.494Z,7.01
2022-12-08T03:41:51.939Z,7.01
2022-12-08T03:44:35.965Z,7.05
2022-12-08T03:47:19.878Z,7.42
2022-12-08T03:50:03.930Z,7.38
2022-12-08T03:52:48.121Z,7.33
2022-12-08T03:55:31.816Z,7.34
2022-12-08T03:58:17.089Z,7.26
2022-12-08T04:01:00.961Z,7.23
2022-12-08T04:03:44.741Z,7.15
2022-12-08T04:06:28.573Z,7.25
2022-12-08T04:09:12.355Z,7.50
2022-12-08T04:11:56.118Z,7.35
2022-12-08T04:14:41.257Z,7.44
2022-12-08T04:17:25.121Z,7.33
2022-12-08T04:20:09.230Z,7.41
2022-12-08T04:22:53.000Z,7.48
2022-12-08T04:25:37.693Z,7.72
2022-12-08T04:28:21.837Z,7.66
2022-12-08T04:31:07.436Z,7.60
2022-12-08T04:33:51.227Z,7.43
2022-12-08T04:36:35.164Z,7.50
2022-12-08T04:39:18.856Z,7.26
2022-12-08T04:42:02.614Z,7.25
2022-12-08T04:44:46.399Z,7.22
2022-12-08T04:47:31.568Z,7.32
2022-12-08T04:50:15.666Z,7.52
2022-12-08T04:52:59.391Z,7.68
2022-12-08T04:55:44.970Z,7.76
2022-12-08T04:58:28.783Z,7.73
2022-12-08T05:01:13.165Z,7.68
2022-12-08T05:03:58.839Z,7.33
2022-12-08T05:06:42.613Z,6.96
2022-12-08T05:09:26.604Z,6.80
2022-12-08T05:12:10.357Z,6.64
2022-12-08T05:14:54.140Z,6.55
2022-12-08T05:17:37.952Z,6.94
2022-12-08T05:20:23.468Z,7.14
2022-12-08T05:23:07.231Z,6.88
2022-12-08T05:25:50.922Z,6.76
2022-12-08T05:28:43.529Z,6.67
2022-12-08T05:31:27.617Z,6.91
2022-12-08T05:34:11.657Z,7.02
2022-12-08T05:36:57.159Z,7.07
2022-12-08T05:39:41.102Z,7.10
2022-12-08T05:42:25.287Z,6.70
2022-12-08T05:45:10.683Z,6.82
2022-12-08T05:47:55.130Z,6.67
2022-12-08T05:50:38.910Z,6.68
2022-12-08T05:53:24.124Z,6.14
2022-12-08T05:56:08.528Z,6.22
2022-12-08T05:58:52.290Z,6.22
2022-12-08T06:01:36.732Z,5.97
2022-12-08T06:04:20.532Z,6.28
2022-12-08T06:07:04.282Z,6.63
2022-12-08T06:09:49.452Z,6.76
2022-12-08T06:12:33.380Z,6.72
2022-12-08T06:15:17.237Z,6.73
2022-12-08T06:18:01.168Z,6.98
2022-12-08T06:20:44.885Z,7.12
2022-12-08T06:23:28.648Z,7.11
2022-12-08T06:26:15.703Z,6.87
2022-12-08T06:29:00.882Z,7.10
2022-12-08T06:31:44.834Z,7.17
2022-12-08T06:34:28.832Z,7.37
2022-12-08T06:37:13.492Z,7.55
2022-12-08T06:39:58.078Z,7.44
2022-12-08T06:42:45.427Z,7.32
2022-12-08T06:45:29.449Z,7.28
2022-12-08T06:48:13.420Z,7.63
2022-12-08T06:50:57.398Z,7.79
2022-12-08T06:53:41.895Z,7.82
2022-12-08T06:56:28.120Z,7.69
2022-12-08T06:59:13.249Z,7.70
2022-12-08T07:01:57.353Z,7.86
2022-12-08T07:04:41.164Z,8.07
2022-12-08T07:07:24.889Z,8.02
2022-12-08T07:10:09.733Z,7.96
2022-12-08T07:12:53.582Z,8.14
2022-12-08T07:15:38.849Z,8.12
2022-12-08T07:18:22.616Z,8.26
2022-12-08T07:21:07.693Z,7.92
2022-12-08T07:23:57.304Z,7.71
2022-12-08T07:26:41.660Z,7.41
2022-12-08T07:29:26.470Z,8.03
2022-12-08T07:32:11.819Z,8.45
2022-12-08T07:34:55.574Z,8.76
2022-12-08T07:37:39.883Z,8.84
2022-12-08T07:40:23.692Z,8.96
2022-12-08T07:43:07.514Z,8.85
2022-12-08T07:45:52.315Z,8.86
2022-12-08T07:48:37.750Z,8.93
2022-12-08T07:51:21.649Z,9.03
2022-12-08T07:54:05.684Z,8.59
2022-12-08T07:56:49.733Z,8.21
2022-12-08T07:59:33.860Z,7.90
2022-12-08T08:02:24.875Z,8.48
2022-12-08T08:05:13.213Z,8.82
2022-12-08T08:07:57.333Z,9.13
2022-12-08T08:10:41.330Z,9.60
2022-12-08T08:13:25.270Z,8.65
2022-12-08T08:16:13.585Z,8.21
2022-12-08T08:18:59.156Z,8.55
2022-12-08T08:21:46.107Z,9.09
2022-12-08T08:24:30.432Z,9.45
2022-12-08T08:27:15.975Z,10.31
2022-12-08T08:30:01.601Z,10.67
2022-12-08T08:32:48.749Z,10.19
2022-12-08T08:35:32.692Z,10.60
2022-12-08T08:38:19.611Z,11.43
2022-12-08T08:41:09.153Z,11.74
2022-12-08T08:43:53.298Z,12.06
2022-12-08T08:46:37.522Z,11.99
2022-12-08T08:49:21.959Z,11.57
2022-12-08T08:52:06.670Z,11.83
2022-12-08T08:54:53.380Z,11.42
2022-12-08T08:57:37.397Z,10.52
2022-12-08T09:00:21.946Z,11.09
2022-12-08T09:03:07.601Z,11.02
2022-12-08T09:05:52.132Z,9.62
2022-12-08T09:08:36.160Z,9.53
2022-12-08T09:11:23.552Z,9.99
2022-12-08T09:14:08.004Z,9.27
2022-12-08T09:16:53.623Z,9.90
2022-12-08T09:19:37.757Z,10.03
2022-12-08T09:22:22.050Z,10.44
2022-12-08T09:25:06.455Z,10.48
2022-12-08T09:27:53.413Z,10.10
2022-12-08T09:30:37.321Z,10.70
2022-12-08T09:33:21.201Z,11.02
2022-12-08T09:36:05.785Z,11.16
2022-12-08T09:38:51.223Z,11.92
2022-12-08T09:41:43.359Z,12.43
2022-12-08T09:44:44.264Z,12.46
2022-12-08T09:47:35.982Z,13.19
2022-12-08T09:50:31.534Z,13.88
2022-12-08T09:53:22.629Z,13.67
2022-12-08T09:56:14.258Z,14.07
2022-12-08T09:59:03.247Z,14.27
2022-12-08T10:01:48.770Z,14.32
2022-12-08T10:04:38.093Z,13.98
2022-12-08T10:07:30.925Z,14.08
2022-12-08T10:10:26.922Z,13.55
2022-12-08T10:13:21.939Z,12.72
2022-12-08T10:16:24.251Z,12.98
2022-12-08T10:19:18.968Z,12.98
2022-12-08T10:22:11.230Z,12.64
2022-12-08T10:25:01.584Z,12.62
2022-12-08T10:27:49.982Z,13.36
2022-12-08T10:30:36.804Z,14.07
2022-12-08T10:33:23.068Z,13.88
2022-12-08T10:36:09.252Z,13.21
2022-12-08T10:38:53.255Z,13.68
2022-12-08T10:41:37.137Z,14.10
2022-12-08T10:44:21.387Z,14.67
2022-12-08T10:47:13.596Z,14.78
2022-12-08T10:50:25.768Z,15.05
2022-12-08T10:53:17.054Z,14.22
2022-12-08T10:56:15.719Z,14.66
2022-12-08T10:59:13.330Z,14.32
2022-12-08T11:01:58.506Z,13.62
2022-12-08T11:04:42.648Z,14.20
2022-12-08T11:07:26.670Z,14.38
2022-12-08T11:10:20.283Z,14.92
2022-12-08T11:13:07.415Z,14.97
2022-12-08T11:15:52.860Z,14.65
2022-12-08T11:18:43.530Z,14.60
2022-12-08T11:21:37.929Z,14.75
2022-12-08T11:24:29.262Z,14.79
2022-12-08T11:27:16.635Z,14.55
2022-12-08T11:30:02.239Z,14.19
2022-12-08T11:32:50.455Z,14.38
2022-12-08T11:35:38.875Z,14.47
2022-12-08T11:38:26.043Z,14.54
2022-12-08T11:41:16.463Z,14.81
2022-12-08T11:44:07.144Z,14.80
2022-12-08T11:46:56.694Z,14.83
2022-12-08T11:49:42.980Z,14.31
2022-12-08T11:52:32.196Z,14.70
2022-12-08T11:55:36.987Z,14.84
2022-12-08T11:58:27.944Z,14.86
2022-12-08T12:01:20.563Z,14.63
2022-12-08T12:04:17.738Z,14.62
2022-12-08T12:07:53.509Z,14.79
2022-12-08T12:10:50.277Z,14.50
2022-12-08T12:13:52.080Z,14.41
2022-12-08T12:17:02.500Z,14.70
2022-12-08T12:19:48.552Z,15.07
2022-12-08T12:22:36.140Z,14.97
2022-12-08T12:25:23.709Z,15.16
2022-12-08T12:28:10.147Z,14.77
2022-12-08T12:30:59.524Z,14.85
2022-12-08T12:33:47.532Z,15.16
2022-12-08T12:36:32.541Z,14.71
2022-12-08T12:39:19.856Z,14.66
2022-12-08T12:42:06.315Z,15.05
2022-12-08T12:45:25.448Z,15.04
2022-12-08T12:48:23.887Z,15.20
2022-12-08T12:51:37.142Z,15.11
2022-12-08T12:54:23.133Z,15.06
2022-12-08T12:57:22.150Z,14.25
2022-12-08T13:00:18.775Z,14.35
2022-12-08T13:03:03.355Z,14.35
2022-12-08T13:05:52.424Z,14.52
2022-12-08T13:08:37.950Z,13.87
2022-12-08T13:11:23.438Z,14.31
2022-12-08T13:14:09.648Z,14.16
2022-12-08T13:16:56.363Z,13.95
2022-12-08T13:19:41.630Z,13.78
2022-12-08T13:23:05.055Z,13.83
2022-12-08T13:25:53.061Z,14.04
2022-12-08T13:29:15.359Z,14.06
2022-12-08T13:32:01.151Z,13.84
2022-12-08T13:34:50.549Z,13.50
2022-12-08T13:37:52.319Z,13.70
2022-12-08T13:40:40.137Z,13.32
2022-12-08T13:43:43.397Z,13.41
2022-12-08T13:47:24.722Z,13.54
2022-12-08T13:59:11.689Z,13.29
2022-12-08T14:01:57.374Z,12.91
2022-12-08T14:05:17.036Z,12.93
2022-12-08T14:07:55.069Z,12.95
2022-12-08T14:10:39.035Z,13.10
2022-12-08T14:13:23.004Z,13.24
2022-12-08T14:16:28.093Z,12.89
2022-12-08T14:19:23.525Z,13.34
2022-12-08T14:22:13.135Z,13.08
2022-12-08T14:24:59.468Z,12.32
2022-12-08T14:27:43.769Z,12.78
2022-12-08T14:30:32.272Z,12.93
2022-12-08T14:33:18.035Z,13.22
2022-12-08T14:36:01.904Z,13.19
2022-12-08T14:38:46.632Z,12.73
2022-12-08T14:41:34.196Z,12.84
2022-12-08T14:44:24.885Z,12.94
2022-12-08T14:47:10.320Z,12.99
2022-12-08T14:49:55.601Z,13.00
2022-12-08T14:52:44.726Z,12.71
2022-12-08T14:55:29.681Z,12.91
2022-12-08T14:58:19.247Z,12.99
2022-12-08T15:01:05.349Z,12.68
2022-12-08T15:03:51.376Z,12.77
2022-12-08T15:06:37.776Z,12.69
2022-12-08T15:09:31.914Z,12.86
2022-12-08T15:12:27.153Z,12.72
2022-12-08T15:15:17.793Z,12.90
2022-12-08T15:18:13.429Z,12.81
2022-12-08T15:21:03.949Z,12.56
2022-12-08T15:23:52.206Z,12.65
2022-12-08T15:26:41.708Z,12.75
2022-12-08T15:29:27.656Z,12.55
2022-12-08T15:32:15.695Z,12.78
2022-12-08T15:34:59.622Z,12.71
2022-12-08T15:37:43.821Z,12.81
2022-12-08T15:40:29.277Z,12.70
2022-12-08T15:43:13.356Z,12.65
2022-12-08T15:46:00.119Z,12.78
2022-12-08T15:48:44.795Z,12.71
2022-12-08T15:51:28.758Z,12.81
2022-12-08T15:54:12.766Z,12.47
2022-12-08T16:00:04.380Z,12.88
2022-12-08T16:03:22.455Z,12.53
2022-12-08T16:06:20.538Z,12.62
2022-12-08T16:09:11.191Z,12.38
2022-12-08T16:12:14.870Z,12.79
2022-12-08T16:15:48.414Z,12.47
2022-12-08T16:18:02.996Z,12.70
2022-12-08T16:23:51.141Z,12.54
2022-12-08T16:29:47.094Z,12.83
2022-12-08T16:32:31.189Z,12.66
2022-12-08T16:35:15.949Z,12.50
2022-12-08T16:38:00.114Z,12.53
2022-12-08T16:41:03.713Z,12.54
2022-12-08T16:43:47.793Z,12.60
2022-12-08T16:46:33.692Z,12.84
2022-12-08T16:49:17.469Z,12.73
2022-12-08T16:52:01.273Z,12.60
2022-12-08T16:54:45.023Z,12.62
2022-12-08T16:57:28.816Z,12.82
2022-12-08T17:00:16.259Z,12.76
2022-12-08T17:03:01.408Z,13.04
2022-12-08T17:05:45.497Z,12.97
2022-12-08T17:08:29.376Z,12.86
2022-12-08T17:11:22.191Z,12.79
2022-12-08T17:14:05.954Z,12.89
2022-12-08T17:16:49.857Z,12.96
2022-12-08T17:19:35.218Z,13.08
2022-12-08T17:22:18.843Z,13.15
2022-12-08T17:25:03.580Z,13.21
2022-12-08T17:27:47.380Z,13.24
2022-12-08T17:30:31.188Z,12.93
2022-12-08T17:33:14.961Z,13.06
2022-12-08T17:36:00.110Z,12.95
2022-12-08T17:38:44.077Z,13.24
2022-12-08T17:41:28.129Z,13.20
2022-12-08T17:44:13.584Z,13.25
2022-12-08T17:46:57.417Z,13.33
2022-12-08T17:49:41.152Z,13.22
2022-12-08T17:52:26.380Z,13.29
2022-12-08T17:55:11.622Z,13.29
2022-12-08T17:57:56.189Z,13.29
2022-12-08T18:00:40.012Z,13.26
2022-12-08T18:03:23.859Z,13.29
2022-12-08T18:06:09.467Z,13.17
2022-12-08T18:08:54.702Z,13.28
2022-12-08T18:11:39.188Z,13.14
2022-12-08T18:14:23.184Z,13.26
2022-12-08T18:17:07.118Z,13.10
2022-12-08T18:19:50.923Z,13.19
2022-12-08T18:22:34.803Z,13.14
2022-12-08T18:25:19.963Z,13.18
2022-12-08T18:28:03.983Z,13.17
2022-12-08T18:30:47.841Z,12.91
2022-12-08T18:33:31.819Z,13.05
2022-12-08T18:36:18.780Z,13.01
2022-12-08T18:39:07.165Z,12.98
2022-12-08T18:41:56.262Z,13.15
2022-12-08T18:44:39.980Z,13.16
2022-12-08T18:47:24.112Z,13.08
2022-12-08T18:50:11.066Z,13.10
2022-12-08T18:52:55.000Z,12.90
2022-12-08T18:55:38.834Z,12.84
2022-12-08T18:58:24.016Z,12.73
2022-12-08T19:01:07.866Z,12.78
2022-12-08T19:04:20.070Z,12.72
2022-12-08T19:06:55.745Z,12.63
2022-12-08T19:09:39.997Z,12.38
2022-12-08T19:12:23.883Z,12.36
2022-12-08T19:15:10.230Z,12.32
2022-12-08T19:17:54.034Z,12.31
2022-12-08T19:20:37.826Z,12.36
2022-12-08T19:23:21.642Z,12.49
2022-12-08T19:26:06.097Z,12.45
2022-12-08T19:28:49.936Z,12.65
2022-12-08T19:31:35.167Z,12.72
2022-12-08T19:34:19.151Z,12.67
2022-12-08T19:37:03.036Z,12.52
2022-12-08T19:40:04.656Z,12.60
2022-12-08T19:43:06.432Z,12.55
2022-12-08T19:45:50.244Z,12.70
2022-12-08T19:48:35.518Z,12.83
2022-12-08T19:51:19.407Z,12.93
2022-12-08T19:54:03.436Z,12.77
2022-12-08T19:56:47.746Z,12.92
2022-12-08T19:59:31.756Z,12.95
2022-12-08T20:02:15.870Z,12.90
2022-12-08T20:05:01.637Z,12.65
2022-12-08T20:07:47.244Z,12.87
2022-12-08T20:10:33.869Z,12.81
2022-12-08T20:13:35.373Z,12.73
2022-12-08T20:16:19.555Z,12.48
2022-12-08T20:19:04.175Z,12.79
2022-12-08T20:21:49.752Z,12.43
2022-12-08T20:24:33.692Z,12.40
2022-12-08T20:27:17.620Z,11.81
2022-12-08T20:30:01.573Z,12.80
2022-12-08T20:32:47.863Z,12.65
2022-12-08T20:35:31.636Z,12.85
2022-12-08T20:38:17.235Z,12.87
2022-12-08T20:41:00.981Z,12.55
2022-12-08T20:43:45.164Z,13.17
2022-12-08T20:46:29.406Z,13.08
2022-12-08T20:49:13.226Z,12.69
2022-12-08T20:51:57.236Z,12.94
2022-12-08T20:54:42.850Z,12.88
2022-12-08T20:57:27.147Z,12.81
2022-12-08T21:00:12.401Z,13.03
2022-12-08T21:02:57.463Z,12.79
2022-12-08T21:05:41.687Z,12.87
2022-12-08T21:08:26.430Z,13.11
2022-12-08T21:11:12.245Z,13.10
2022-12-08T21:13:56.155Z,13.16
2022-12-08T21:16:40.338Z,12.84
2022-12-08T21:19:24.948Z,12.56
2022-12-08T21:22:09.179Z,12.74
2022-12-08T21:24:53.267Z,12.76
2022-12-08T21:27:40.311Z,12.90
2022-12-08T21:30:24.412Z,12.81
2022-12-08T21:33:09.147Z,12.86
2022-12-08T21:36:03.258Z,12.93
2022-12-08T21:38:48.399Z,13.22
2022-12-08T21:41:49.985Z,12.99
2022-12-08T21:44:36.355Z,13.26
2022-12-08T21:47:20.580Z,13.01
2022-12-08T21:50:05.560Z,13.16
2022-12-08T21:52:51.025Z,12.88
2022-12-08T21:55:35.032Z,13.02
2022-12-08T21:58:19.152Z,13.08
2022-12-08T22:01:08.434Z,12.91
2022-12-08T22:03:52.742Z,13.07
2022-12-08T22:06:36.914Z,12.97
2022-12-08T22:09:21.095Z,13.02
2022-12-08T22:12:05.734Z,12.88
2022-12-08T22:14:51.140Z,12.92
2022-12-08T22:17:39.452Z,13.03
2022-12-08T22:20:23.846Z,12.98
2022-12-08T22:23:07.747Z,13.12
2022-12-08T22:25:58.795Z,12.87
2022-12-08T22:28:44.445Z,13.13
2022-12-08T22:31:28.685Z,13.06
2022-12-08T22:34:14.811Z,13.02
2022-12-08T22:36:58.772Z,12.73
2022-12-08T22:39:42.703Z,13.08
2022-12-08T22:42:26.702Z,12.88
2022-12-08T22:45:12.023Z,12.25
2022-12-08T22:47:55.939Z,12.62
2022-12-08T22:50:41.758Z,13.02
2022-12-08T22:53:25.943Z,12.13
2022-12-08T22:56:11.926Z,12.63
2022-12-08T22:58:56.090Z,12.87
2022-12-08T23:01:40.097Z,13.24
2022-12-08T23:04:24.158Z,13.24
2022-12-08T23:07:09.689Z,13.03
2022-12-08T23:09:53.665Z,13.05
2022-12-08T23:12:37.929Z,13.06
2022-12-08T23:15:21.865Z,13.18
2022-12-08T23:18:06.334Z,13.12
2022-12-08T23:20:50.426Z,12.90
2022-12-08T23:23:36.144Z,13.14
2022-12-08T23:26:22.896Z,13.04
2022-12-08T23:29:07.287Z,12.83
2022-12-08T23:31:51.299Z,12.81
2022-12-08T23:34:35.611Z,12.55
2022-12-08T23:37:19.699Z,12.57
2022-12-08T23:40:06.195Z,12.74
2022-12-08T23:42:50.689Z,12.47
2022-12-08T23:45:34.752Z,12.37
2022-12-08T23:48:18.956Z,12.35
2022-12-08T23:51:03.411Z,12.44
2022-12-08T23:53:47.487Z,12.22
2022-12-08T23:56:32.934Z,12.01
2022-12-08T23:59:16.925Z,11.70
